Time;durP1;ratioP1;P1;durP2;ratioP2;P2;SDS_P1;SDS_P2;PMS_P1;PMS_P2;Temp;Humidity;BMP_temperature;BMP_pressure;BME280_temperature;BME280_humidity;BME280_pressure;Samples;Min_cycle;Max_cycle;Signal;HPM_P1;HPM_P2
2022/09/15 00:00:08;;;;;;;;;;;;;;;;;;1042685;28;3880;-54
2022/09/15 00:00:59;;;;;;;;;;;;;;;;;;1041270;28;3765;-59
2022/09/15 00:01:40;;;;;;;;;;;;;;;;;;1041324;28;3770;-58
2022/09/15 00:02:11;;;;;;;;;;;;;;;;;;1039433;28;4087;-58
2022/09/15 00:02:42;;;;;;;;;;;;;;;;;;1044301;28;3855;-57
2022/09/15 00:03:12;;;;;;;;;;;;;;;;;;1044000;28;3915;-58
2022/09/15 00:03:43;;;;;;;;;;;;;;;;;;1045642;28;3670;-59
2022/09/15 00:04:13;;;;;;;;;;;;;;;;;;1043346;28;3952;-58
2022/09/15 00:04:43;;;;;;;;;;;;;;;;;;1043500;28;3122;-58
2022/09/15 00:05:13;;;;;;;;;;;;;;;;;;1043405;28;3971;-59
2022/09/15 00:05:44;;;;;;;;;;;;;;;;;;1044814;28;3765;-58
2022/09/15 00:06:15;;;;;;;;;;;;;;;;;;1043391;28;4155;-57
2022/09/15 00:06:45;;;;;;;;;;;;;;;;;;1043164;28;3391;-58
2022/09/15 00:07:15;;;;;;;;;;;;;;;;;;1043981;28;3870;-58
2022/09/15 00:07:46;;;;;;;;;;;;;;;;;;1044471;28;3652;-58
2022/09/15 00:08:16;;;;;;;;;;;;;;;;;;1043446;28;4033;-58
2022/09/15 00:08:46;;;;;;;;;;;;;;;;;;1044347;28;3832;-59
2022/09/15 00:09:16;;;;;;;;;;;;;;;;;;1042612;28;4083;-59
2022/09/15 00:09:47;;;;;;;;;;;;;;;;;;1044784;28;3476;-57
2022/09/15 00:10:17;;;;;;;;;;;;;;;;;;1043949;28;4008;-58
2022/09/15 00:10:56;;;;;;;;;;;;;;;;;;1042182;28;3624;-58
2022/09/15 00:11:28;;;;;;;;;;;;;;;;;;1042577;28;4750;-56
2022/09/15 00:11:58;;;;;;;;;;;;;;;;;;1044391;28;4088;-58
2022/09/15 00:12:29;;;;;;;;;;;;;;;;;;1043033;28;3769;-58
2022/09/15 00:12:59;;;;;;;;;;;;;;;;;;1043646;28;2276;-57
2022/09/15 00:13:29;;;;;;;;;;;;;;;;;;1043207;28;3895;-58
2022/09/15 00:14:01;;;;;;;;;;;;;;;;;;1044016;28;3640;-57
2022/09/15 00:14:31;;;;;;;;;;;;;;;;;;1041443;28;3963;-56
2022/09/15 00:15:02;;;;;;;;;;;;;;;;;;1042252;28;4100;-58
2022/09/15 00:15:32;;;;;;;;;;;;;;;;;;1043867;28;3508;-58
2022/09/15 00:16:03;;;;;;;;;;;;;;;;;;1044151;28;3881;-57
2022/09/15 00:16:34;;;;;;;;;;;;;;;;;;1043420;28;3630;-58
2022/09/15 00:17:04;;;;;;;;;;;;;;;;;;1044986;28;4054;-58
2022/09/15 00:17:34;;;;;;;;;;;;;;;;;;1044025;28;2953;-57
2022/09/15 00:18:06;;;;;;;;;;;;;;;;;;1044239;28;4051;-58
2022/09/15 00:18:37;;;;;;;;;;;;;;;;;;1044651;28;2900;-56
2022/09/15 00:19:07;;;;;;;;;;;;;;;;;;1041951;28;4234;-58
2022/09/15 00:19:37;;;;;;;;;;;;;;;;;;1044401;28;2332;-57
2022/09/15 00:20:08;;;;;;;;;;;;;;;;;;1042728;28;4079;-56
2022/09/15 00:20:39;;;;;;;;;;;;;;;;;;1045480;28;3481;-58
2022/09/15 00:21:11;;;;;;;;;;;;;;;;;;1042876;28;3916;-58
2022/09/15 00:21:41;;;;;;;;;;;;;;;;;;1045146;28;3612;-58
2022/09/15 00:22:12;;;;;;;;;;;;;;;;;;1043128;28;3901;-58
2022/09/15 00:22:42;;;;;;;;;;;;;;;;;;1044544;28;4025;-59
2022/09/15 00:23:13;;;;;;;;;;;;;;;;;;1036632;28;3856;-57
2022/09/15 00:23:44;;;;;;;;;;;;;;;;;;1040750;28;3856;-57
2022/09/15 00:24:15;;;;;;;;;;;;;;;;;;1043150;28;4061;-58
2022/09/15 00:24:48;;;;;;;;;;;;;;;;;;1044994;28;3996;-59
2022/09/15 00:25:18;;;;;;;;;;;;;;;;;;1046147;28;4319;-56
2022/09/15 00:25:49;;;;;;;;;;;;;;;;;;1043841;28;3096;-58
2022/09/15 00:26:21;;;;;;;;;;;;;;;;;;1042200;28;3801;-58
2022/09/15 00:26:52;;;;;;;;;;;;;;;;;;1043762;28;3679;-58
2022/09/15 00:27:22;;;;;;;;;;;;;;;;;;1042748;28;3869;-59
2022/09/15 00:27:52;;;;;;;;;;;;;;;;;;1044267;28;2966;-58
2022/09/15 00:28:22;;;;;;;;;;;;;;;;;;1041848;28;3858;-58
2022/09/15 00:28:53;;;;;;;;;;;;;;;;;;1045042;28;3919;-58
2022/09/15 00:29:23;;;;;;;;;;;;;;;;;;1043647;28;4055;-57
2022/09/15 00:29:54;;;;;;;;;;;;;;;;;;1044872;28;3850;-59
2022/09/15 00:30:24;;;;;;;;;;;;;;;;;;1042134;28;4027;-58
2022/09/15 00:31:03;;;;;;;;;;;;;;;;;;1044477;28;3894;-57
2022/09/15 00:31:34;;;;;;;;;;;;;;;;;;1044063;28;3245;-58
2022/09/15 00:32:04;;;;;;;;;;;;;;;;;;1044050;28;4261;-58
2022/09/15 00:32:34;;;;;;;;;;;;;;;;;;1042800;28;3391;-58
2022/09/15 00:33:04;;;;;;;;;;;;;;;;;;1044431;28;4235;-58
2022/09/15 00:33:35;;;;;;;;;;;;;;;;;;1044079;28;2811;-59
2022/09/15 00:34:06;;;;;;;;;;;;;;;;;;1043967;28;3845;-56
2022/09/15 00:34:36;;;;;;;;;;;;;;;;;;1044097;28;3600;-58
2022/09/15 00:35:06;;;;;;;;;;;;;;;;;;1044741;28;3957;-57
2022/09/15 00:35:38;;;;;;;;;;;;;;;;;;1043919;28;3236;-57
2022/09/15 00:36:09;;;;;;;;;;;;;;;;;;1045088;28;3950;-59
2022/09/15 00:36:39;;;;;;;;;;;;;;;;;;1042271;28;3806;-59
2022/09/15 00:37:10;;;;;;;;;;;;;;;;;;1042918;28;3877;-59
2022/09/15 00:37:40;;;;;;;;;;;;;;;;;;1042930;28;3788;-56
2022/09/15 00:38:11;;;;;;;;;;;;;;;;;;1042638;28;4255;-58
2022/09/15 00:38:42;;;;;;;;;;;;;;;;;;1043816;28;2478;-56
2022/09/15 00:39:26;;;;;;;;;;;;;;;;;;1043014;28;3945;-58
2022/09/15 00:40:03;;;;;;;;;;;;;;;;;;1043115;28;4059;-58
2022/09/15 00:40:41;;;;;;;;;;;;;;;;;;1043831;28;2685;-56
2022/09/15 00:41:12;;;;;;;;;;;;;;;;;;1043425;28;4042;-59
2022/09/15 00:41:43;;;;;;;;;;;;;;;;;;1044359;28;3293;-58
2022/09/15 00:42:15;;;;;;;;;;;;;;;;;;1047665;28;4181;-59
2022/09/15 00:42:45;;;;;;;;;;;;;;;;;;1047419;28;3641;-58
2022/09/15 00:43:16;;;;;;;;;;;;;;;;;;1047644;28;4016;-56
2022/09/15 00:43:49;;;;;;;;;;;;;;;;;;1047887;28;5712;-58
2022/09/15 00:44:35;;;;;;;;;;;;;;;;;;1046329;28;5284;-58
2022/09/15 00:45:05;;;;;;;;;;;;;;;;;;1042111;28;4104;-57
2022/09/15 00:45:36;;;;;;;;;;;;;;;;;;1047074;28;4006;-59
2022/09/15 00:46:07;;;;;;;;;;;;;;;;;;1046646;28;3908;-58
2022/09/15 00:46:41;;;;;;;;;;;;;;;;;;1048272;28;2817;-59
2022/09/15 00:47:11;;;;;;;;;;;;;;;;;;1048519;28;4025;-57
2022/09/15 00:47:42;;;;;;;;;;;;;;;;;;1043207;28;3738;-55
2022/09/15 00:48:14;;;;;;;;;;;;;;;;;;1042878;28;4088;-58
2022/09/15 00:48:50;;;;;;;;;;;;;;;;;;1043620;28;3000;-58
2022/09/15 00:49:23;;;;;;;;;;;;;;;;;;1042241;28;3904;-56
2022/09/15 00:49:56;;;;;;;;;;;;;;;;;;1045087;28;3737;-58
2022/09/15 00:50:26;;;;;;;;;;;;;;;;;;1043923;28;4237;-59
2022/09/15 00:50:57;;;;;;;;;;;;;;;;;;1044156;28;3738;-59
2022/09/15 00:51:36;;;;;;;;;;;;;;;;;;1042776;28;4012;-57
2022/09/15 00:52:18;;;;;;;;;;;;;;;;;;1043632;28;4037;-58
2022/09/15 00:52:53;;;;;;;;;;;;;;;;;;1041780;28;2981;-58
2022/09/15 00:53:23;;;;;;;;;;;;;;;;;;1042664;28;3896;-58
2022/09/15 00:53:56;;;;;;;;;;;;;;;;;;1044170;28;3754;-56
2022/09/15 00:54:29;;;;;;;;;;;;;;;;;;1042327;28;3963;-56
2022/09/15 00:55:02;;;;;;;;;;;;;;;;;;1043582;28;4720;-57
2022/09/15 00:55:36;;;;;;;;;;;;;;;;;;1044148;28;3846;-58
2022/09/15 00:56:08;;;;;;;;;;;;;;;;;;1042492;28;4074;-58
2022/09/15 00:56:39;;;;;;;;;;;;;;;;;;1043850;28;2969;-57
2022/09/15 00:57:12;;;;;;;;;;;;;;;;;;1043364;28;3807;-57
2022/09/15 00:57:46;;;;;;;;;;;;;;;;;;1043607;28;3418;-57
2022/09/15 00:58:19;;;;;;;;;;;;;;;;;;1043722;28;4056;-57
2022/09/15 00:58:54;;;;;;;;;;;;;;;;;;1044984;28;3871;-59
2022/09/15 00:59:27;;;;;;;;;;;;;;;;;;1043395;28;3885;-58
2022/09/15 00:59:59;;;;;;;;;;;;;;;;;;1044325;28;3906;-58
2022/09/15 01:00:29;;;;;;;;;;;;;;;;;;1043057;28;3921;-56
2022/09/15 01:01:00;;;;;;;;;;;;;;;;;;1043227;28;3902;-57
2022/09/15 01:01:31;;;;;;;;;;;;;;;;;;1043652;28;3827;-58
2022/09/15 01:02:14;;;;;;;;;;;;;;;;;;1043415;28;4124;-57
2022/09/15 01:02:46;;;;;;;;;;;;;;;;;;1042790;28;3930;-59
2022/09/15 01:03:16;;;;;;;;;;;;;;;;;;1042403;28;4483;-59
2022/09/15 01:03:47;;;;;;;;;;;;;;;;;;1042830;28;3202;-57
2022/09/15 01:04:25;;;;;;;;;;;;;;;;;;1042344;28;4037;-58
2022/09/15 01:04:56;;;;;;;;;;;;;;;;;;1044112;28;3337;-58
2022/09/15 01:05:39;;;;;;;;;;;;;;;;;;1042699;28;3851;-58
2022/09/15 01:06:21;;;;;;;;;;;;;;;;;;1041970;28;3848;-55
2022/09/15 01:06:56;;;;;;;;;;;;;;;;;;1043627;28;3632;-57
2022/09/15 01:07:31;;;;;;;;;;;;;;;;;;1042402;28;4017;-57
2022/09/15 01:08:04;;;;;;;;;;;;;;;;;;1044002;28;4068;-57
2022/09/15 01:08:46;;;;;;;;;;;;;;;;;;1040305;28;3676;-58
2022/09/15 01:09:19;;;;;;;;;;;;;;;;;;1043214;28;3886;-57
2022/09/15 01:09:52;;;;;;;;;;;;;;;;;;1043586;28;3778;-57
2022/09/15 01:10:33;;;;;;;;;;;;;;;;;;1043960;28;3874;-58
2022/09/15 01:11:03;;;;;;;;;;;;;;;;;;1044562;28;4084;-59
2022/09/15 01:11:34;;;;;;;;;;;;;;;;;;1044854;28;3500;-57
2022/09/15 01:12:04;;;;;;;;;;;;;;;;;;1045542;28;4052;-56
2022/09/15 01:12:35;;;;;;;;;;;;;;;;;;1047481;28;3342;-58
2022/09/15 01:13:07;;;;;;;;;;;;;;;;;;1047419;28;4065;-58
2022/09/15 01:13:37;;;;;;;;;;;;;;;;;;1047070;28;3702;-58
2022/09/15 01:14:08;;;;;;;;;;;;;;;;;;1043824;28;4215;-58
2022/09/15 01:14:38;;;;;;;;;;;;;;;;;;1041823;28;3771;-57
2022/09/15 01:15:08;;;;;;;;;;;;;;;;;;1042228;28;3951;-59
2022/09/15 01:15:48;;;;;;;;;;;;;;;;;;1044159;28;3701;-59
2022/09/15 01:16:21;;;;;;;;;;;;;;;;;;1043052;28;4144;-58
2022/09/15 01:17:05;;;;;;;;;;;;;;;;;;1042985;28;3802;-58
2022/09/15 01:17:36;;;;;;;;;;;;;;;;;;1043041;28;3907;-58
2022/09/15 01:18:06;;;;;;;;;;;;;;;;;;1045066;28;4075;-59
2022/09/15 01:18:48;;;;;;;;;;;;;;;;;;1043486;28;3897;-58
2022/09/15 01:19:25;;;;;;;;;;;;;;;;;;1042939;28;4206;-57
2022/09/15 01:19:55;;;;;;;;;;;;;;;;;;1043497;28;3918;-57
2022/09/15 01:20:28;;;;;;;;;;;;;;;;;;1042587;28;3808;-59
2022/09/15 01:20:58;;;;;;;;;;;;;;;;;;1043198;28;3790;-59
2022/09/15 01:21:33;;;;;;;;;;;;;;;;;;1043221;28;4405;-58
2022/09/15 01:22:21;;;;;;;;;;;;;;;;;;1043470;28;3892;-57
2022/09/15 01:23:05;;;;;;;;;;;;;;;;;;1042660;28;3657;-58
2022/09/15 01:23:43;;;;;;;;;;;;;;;;;;1042449;28;4054;-59
2022/09/15 01:24:13;;;;;;;;;;;;;;;;;;1037584;28;3894;-59
2022/09/15 01:24:49;;;;;;;;;;;;;;;;;;1042759;28;3556;-59
2022/09/15 01:25:28;;;;;;;;;;;;;;;;;;1044680;28;4074;-57
2022/09/15 01:25:58;;;;;;;;;;;;;;;;;;1042980;28;3762;-60
2022/09/15 01:26:41;;;;;;;;;;;;;;;;;;1044986;28;3828;-58
2022/09/15 01:27:15;;;;;;;;;;;;;;;;;;1043966;28;4135;-57
2022/09/15 01:28:04;;;;;;;;;;;;;;;;;;1044179;28;3185;-58
2022/09/15 01:28:49;;;;;;;;;;;;;;;;;;1042277;28;3826;-59
2022/09/15 01:29:35;;;;;;;;;;;;;;;;;;1043059;28;3869;-59
2022/09/15 01:30:07;;;;;;;;;;;;;;;;;;1041857;28;4062;-55
2022/09/15 01:30:43;;;;;;;;;;;;;;;;;;1042539;28;3576;-58
2022/09/15 01:31:26;;;;;;;;;;;;;;;;;;1042290;28;4028;-58
2022/09/15 01:33:15;;;;;;;;;;;;;;;;;;1047042;28;3914;-57
2022/09/15 01:34:04;;;;;;;;;;;;;;;;;;1046184;28;3853;-57
2022/09/15 01:34:38;;;;;;;;;;;;;;;;;;1043419;28;3775;-59
2022/09/15 01:35:14;;;;;;;;;;;;;;;;;;1044293;28;4044;-58
2022/09/15 01:35:50;;;;;;;;;;;;;;;;;;1043883;28;3911;-59
2022/09/15 01:36:23;;;;;;;;;;;;;;;;;;1042926;28;4052;-59
2022/09/15 01:36:56;;;;;;;;;;;;;;;;;;1043704;28;3715;-57
2022/09/15 01:37:36;;;;;;;;;;;;;;;;;;1043303;28;3700;-59
2022/09/15 01:38:25;;;;;;;;;;;;;;;;;;1042762;28;4076;-59
2022/09/15 01:38:59;;;;;;;;;;;;;;;;;;1044219;28;3965;-55
2022/09/15 01:39:45;;;;;;;;;;;;;;;;;;1044633;28;3896;-59
2022/09/15 01:40:23;;;;;;;;;;;;;;;;;;1046643;28;3871;-59
2022/09/15 01:41:05;;;;;;;;;;;;;;;;;;1048945;28;3567;-59
2022/09/15 01:41:46;;;;;;;;;;;;;;;;;;1047550;28;3976;-57
2022/09/15 01:42:17;;;;;;;;;;;;;;;;;;1047566;28;4062;-58
2022/09/15 01:42:49;;;;;;;;;;;;;;;;;;1046454;28;3751;-59
2022/09/15 01:43:21;;;;;;;;;;;;;;;;;;1047320;28;4023;-58
2022/09/15 01:43:58;;;;;;;;;;;;;;;;;;1050364;28;3692;-58
2022/09/15 01:44:31;;;;;;;;;;;;;;;;;;1050799;28;4088;-57
2022/09/15 01:45:05;;;;;;;;;;;;;;;;;;1050698;28;3932;-58
2022/09/15 01:45:37;;;;;;;;;;;;;;;;;;1050599;28;3392;-58
2022/09/15 01:46:08;;;;;;;;;;;;;;;;;;1046273;28;4090;-59
2022/09/15 01:46:45;;;;;;;;;;;;;;;;;;1046115;28;3602;-58
2022/09/15 01:47:17;;;;;;;;;;;;;;;;;;1047224;28;3973;-59
2022/09/15 01:47:51;;;;;;;;;;;;;;;;;;1046689;28;3751;-58
2022/09/15 01:48:24;;;;;;;;;;;;;;;;;;1047208;28;4044;-57
2022/09/15 01:48:55;;;;;;;;;;;;;;;;;;1048360;28;3993;-59
2022/09/15 01:49:33;;;;;;;;;;;;;;;;;;1047909;28;4080;-60
2022/09/15 01:50:09;;;;;;;;;;;;;;;;;;1049031;28;4043;-59
2022/09/15 01:50:45;;;;;;;;;;;;;;;;;;1047150;28;3185;-58
2022/09/15 01:51:16;;;;;;;;;;;;;;;;;;1046699;28;4054;-58
2022/09/15 01:51:49;;;;;;;;;;;;;;;;;;1046891;28;3909;-58
2022/09/15 01:52:21;;;;;;;;;;;;;;;;;;1047203;28;4216;-59
2022/09/15 01:52:53;;;;;;;;;;;;;;;;;;1047585;28;4168;-58
2022/09/15 01:53:24;;;;;;;;;;;;;;;;;;1048140;28;4370;-58
2022/09/15 01:53:56;;;;;;;;;;;;;;;;;;1048908;28;3779;-58
2022/09/15 01:54:29;;;;;;;;;;;;;;;;;;1046076;28;3819;-59
2022/09/15 01:55:02;;;;;;;;;;;;;;;;;;1048483;28;3849;-58
2022/09/15 01:55:37;;;;;;;;;;;;;;;;;;1047542;28;4082;-57
2022/09/15 01:56:09;;;;;;;;;;;;;;;;;;1047805;28;4090;-59
2022/09/15 01:56:40;;;;;;;;;;;;;;;;;;1048454;28;2878;-59
2022/09/15 01:57:11;;;;;;;;;;;;;;;;;;1048238;28;3830;-59
2022/09/15 01:57:41;;;;;;;;;;;;;;;;;;1047208;28;3692;-57
2022/09/15 01:58:12;;;;;;;;;;;;;;;;;;1048320;28;3893;-58
2022/09/15 01:58:42;;;;;;;;;;;;;;;;;;1048563;28;3698;-59
2022/09/15 01:59:12;;;;;;;;;;;;;;;;;;1043529;28;4183;-59
2022/09/15 01:59:43;;;;;;;;;;;;;;;;;;1044528;28;4077;-57
2022/09/15 02:00:13;;;;;;;;;;;;;;;;;;1043246;28;4149;-58
2022/09/15 02:00:46;;;;;;;;;;;;;;;;;;1044669;28;3922;-58
2022/09/15 02:01:26;;;;;;;;;;;;;;;;;;1047102;28;4010;-59
2022/09/15 02:02:00;;;;;;;;;;;;;;;;;;1047955;28;3120;-58
2022/09/15 02:02:34;;;;;;;;;;;;;;;;;;1049129;28;3958;-59
2022/09/15 02:03:08;;;;;;;;;;;;;;;;;;1047880;28;4639;-58
2022/09/15 02:03:47;;;;;;;;;;;;;;;;;;1048230;28;2545;-59
2022/09/15 02:04:28;;;;;;;;;;;;;;;;;;1043867;28;3985;-59
2022/09/15 02:05:02;;;;;;;;;;;;;;;;;;1043627;28;4046;-59
2022/09/15 02:05:43;;;;;;;;;;;;;;;;;;1040425;28;3969;-59
2022/09/15 02:06:35;;;;;;;;;;;;;;;;;;1044980;28;3955;-59
2022/09/15 02:07:19;;;;;;;;;;;;;;;;;;1045299;28;4345;-57
2022/09/15 02:08:11;;;;;;;;;;;;;;;;;;1049785;28;4407;-59
2022/09/15 02:08:46;;;;;;;;;;;;;;;;;;1049098;28;3898;-58
2022/09/15 02:09:21;;;;;;;;;;;;;;;;;;1047425;28;4303;-59
2022/09/15 02:09:55;;;;;;;;;;;;;;;;;;1048748;28;3197;-58
2022/09/15 02:10:33;;;;;;;;;;;;;;;;;;1047643;28;4018;-59
2022/09/15 02:11:11;;;;;;;;;;;;;;;;;;1048804;28;3928;-57
2022/09/15 02:11:51;;;;;;;;;;;;;;;;;;1049833;28;3682;-57
2022/09/15 02:12:37;;;;;;;;;;;;;;;;;;1052184;28;4301;-59
2022/09/15 02:13:15;;;;;;;;;;;;;;;;;;1051958;28;4140;-58
2022/09/15 02:14:09;;;;;;;;;;;;;;;;;;1051877;28;3850;-59
2022/09/15 02:14:49;;;;;;;;;;;;;;;;;;1047329;28;3946;-57
2022/09/15 02:15:41;;;;;;;;;;;;;;;;;;1048550;28;4029;-58
2022/09/15 02:16:18;;;;;;;;;;;;;;;;;;1048261;28;3901;-58
2022/09/15 02:16:51;;;;;;;;;;;;;;;;;;1048690;28;2930;-57
2022/09/15 02:17:22;;;;;;;;;;;;;;;;;;1047358;28;3922;-59
2022/09/15 02:17:54;;;;;;;;;;;;;;;;;;1049098;28;3848;-58
2022/09/15 02:18:44;;;;;;;;;;;;;;;;;;1048949;28;3702;-58
2022/09/15 02:19:30;;;;;;;;;;;;;;;;;;1048126;28;3920;-58
2022/09/15 02:20:32;;;;;;;;;;;;;;;;;;1047276;28;2890;-58
2022/09/15 02:21:10;;;;;;;;;;;;;;;;;;1035502;28;4083;-58
2022/09/15 02:21:45;;;;;;;;;;;;;;;;;;1036294;28;3188;-57
2022/09/15 02:22:22;;;;;;;;;;;;;;;;;;1037568;28;4103;-58
2022/09/15 02:22:54;;;;;;;;;;;;;;;;;;1041504;28;3791;-58
2022/09/15 02:23:30;;;;;;;;;;;;;;;;;;1048987;28;3991;-58
2022/09/15 02:24:04;;;;;;;;;;;;;;;;;;1047788;28;3799;-59
2022/09/15 02:24:39;;;;;;;;;;;;;;;;;;1047355;28;3732;-59
2022/09/15 02:25:19;;;;;;;;;;;;;;;;;;1047741;28;3910;-58
2022/09/15 02:25:52;;;;;;;;;;;;;;;;;;1045375;28;3206;-58
2022/09/15 02:26:25;;;;;;;;;;;;;;;;;;1046790;28;4072;-58
2022/09/15 02:26:56;;;;;;;;;;;;;;;;;;1049910;28;3767;-59
2022/09/15 02:27:27;;;;;;;;;;;;;;;;;;1047573;28;3844;-59
2022/09/15 02:28:05;;;;;;;;;;;;;;;;;;1047600;28;4042;-59
2022/09/15 02:28:37;;;;;;;;;;;;;;;;;;1047004;28;3991;-59
2022/09/15 02:29:09;;;;;;;;;;;;;;;;;;1046509;28;3903;-57
2022/09/15 02:29:40;;;;;;;;;;;;;;;;;;1048374;28;3215;-59
2022/09/15 02:30:13;;;;;;;;;;;;;;;;;;1044668;28;3962;-59
2022/09/15 02:30:44;;;;;;;;;;;;;;;;;;1042352;28;3814;-57
2022/09/15 02:31:15;;;;;;;;;;;;;;;;;;1041046;28;3931;-58
2022/09/15 02:31:47;;;;;;;;;;;;;;;;;;1041887;28;3498;-60
2022/09/15 02:32:19;;;;;;;;;;;;;;;;;;1044547;28;4113;-56
2022/09/15 02:32:55;;;;;;;;;;;;;;;;;;1047715;28;3118;-58
2022/09/15 02:33:28;;;;;;;;;;;;;;;;;;1048111;28;4214;-57
2022/09/15 02:34:05;;;;;;;;;;;;;;;;;;1045690;28;3861;-58
2022/09/15 02:34:37;;;;;;;;;;;;;;;;;;1043678;28;3971;-56
2022/09/15 02:35:08;;;;;;;;;;;;;;;;;;1044348;28;4085;-58
2022/09/15 02:35:39;;;;;;;;;;;;;;;;;;1045952;28;2783;-58
2022/09/15 02:36:12;;;;;;;;;;;;;;;;;;1050529;28;4418;-58
2022/09/15 02:36:43;;;;;;;;;;;;;;;;;;1052598;28;2911;-58
2022/09/15 02:37:14;;;;;;;;;;;;;;;;;;1051394;28;3929;-56
2022/09/15 02:37:45;;;;;;;;;;;;;;;;;;1052612;28;3233;-59
2022/09/15 02:38:15;;;;;;;;;;;;;;;;;;1047483;28;4148;-59
2022/09/15 02:38:48;;;;;;;;;;;;;;;;;;1049327;28;3814;-57
2022/09/15 02:39:35;;;;;;;;;;;;;;;;;;1046188;28;4149;-58
2022/09/15 02:40:12;;;;;;;;;;;;;;;;;;1047110;28;4110;-59
2022/09/15 02:40:43;;;;;;;;;;;;;;;;;;1044049;28;3193;-59
2022/09/15 02:41:13;;;;;;;;;;;;;;;;;;1043446;28;4081;-57
2022/09/15 02:41:44;;;;;;;;;;;;;;;;;;1045544;28;2923;-59
2022/09/15 02:42:23;;;;;;;;;;;;;;;;;;1044008;28;3859;-58
2022/09/15 02:42:54;;;;;;;;;;;;;;;;;;1049684;28;3787;-59
2022/09/15 02:43:25;;;;;;;;;;;;;;;;;;1047574;28;3938;-58
2022/09/15 02:43:55;;;;;;;;;;;;;;;;;;1049030;28;3779;-58
2022/09/15 02:44:26;;;;;;;;;;;;;;;;;;1046919;28;3921;-58
2022/09/15 02:44:56;;;;;;;;;;;;;;;;;;1048170;28;4017;-58
2022/09/15 02:45:29;;;;;;;;;;;;;;;;;;1047376;28;3812;-59
2022/09/15 02:46:00;;;;;;;;;;;;;;;;;;1047754;28;3703;-58
2022/09/15 02:46:30;;;;;;;;;;;;;;;;;;1047072;28;3899;-57
2022/09/15 02:47:01;;;;;;;;;;;;;;;;;;1048809;28;3685;-57
2022/09/15 02:47:31;;;;;;;;;;;;;;;;;;1046571;28;3624;-56
2022/09/15 02:48:02;;;;;;;;;;;;;;;;;;1048083;28;4155;-58
2022/09/15 02:48:32;;;;;;;;;;;;;;;;;;1048160;28;2403;-58
2022/09/15 02:49:02;;;;;;;;;;;;;;;;;;1048735;28;4082;-59
2022/09/15 02:49:33;;;;;;;;;;;;;;;;;;1046109;28;5135;-59
2022/09/15 02:50:03;;;;;;;;;;;;;;;;;;1049300;28;3894;-59
2022/09/15 02:50:34;;;;;;;;;;;;;;;;;;1047443;28;2840;-59
2022/09/15 02:51:05;;;;;;;;;;;;;;;;;;1046603;28;3956;-58
2022/09/15 02:51:35;;;;;;;;;;;;;;;;;;1047772;28;2695;-59
2022/09/15 02:52:06;;;;;;;;;;;;;;;;;;1047852;28;3819;-59
2022/09/15 02:52:36;;;;;;;;;;;;;;;;;;1047790;28;3733;-59
2022/09/15 02:53:07;;;;;;;;;;;;;;;;;;1044734;28;3977;-58
2022/09/15 02:53:37;;;;;;;;;;;;;;;;;;1045253;28;3053;-57
2022/09/15 02:54:07;;;;;;;;;;;;;;;;;;1044297;28;3904;-59
2022/09/15 02:54:37;;;;;;;;;;;;;;;;;;1046010;28;2606;-58
2022/09/15 02:55:08;;;;;;;;;;;;;;;;;;1047255;28;4061;-59
2022/09/15 02:55:39;;;;;;;;;;;;;;;;;;1047142;28;3870;-58
2022/09/15 02:56:09;;;;;;;;;;;;;;;;;;1046821;28;3893;-57
2022/09/15 02:56:39;;;;;;;;;;;;;;;;;;1048122;28;3712;-59
2022/09/15 02:57:10;;;;;;;;;;;;;;;;;;1048599;28;4439;-59
2022/09/15 02:57:40;;;;;;;;;;;;;;;;;;1045367;28;2809;-56
2022/09/15 02:58:10;;;;;;;;;;;;;;;;;;1044532;28;3860;-56
2022/09/15 02:58:41;;;;;;;;;;;;;;;;;;1043615;28;3353;-58
2022/09/15 02:59:12;;;;;;;;;;;;;;;;;;1044384;28;4766;-56
2022/09/15 03:00:31;;;;;;;;;;;;;;;;;;1047615;28;3897;-58
2022/09/15 03:01:03;;;;;;;;;;;;;;;;;;1047111;28;3908;-58
2022/09/15 03:01:33;;;;;;;;;;;;;;;;;;1047814;28;2704;-58
2022/09/15 03:02:04;;;;;;;;;;;;;;;;;;1042872;28;3915;-58
2022/09/15 03:02:34;;;;;;;;;;;;;;;;;;1044119;28;3683;-59
2022/09/15 03:03:05;;;;;;;;;;;;;;;;;;1042921;28;4077;-58
2022/09/15 03:03:35;;;;;;;;;;;;;;;;;;1045617;28;3806;-59
2022/09/15 03:04:06;;;;;;;;;;;;;;;;;;1048454;28;4149;-58
2022/09/15 03:04:36;;;;;;;;;;;;;;;;;;1049357;28;2447;-59
2022/09/15 03:05:07;;;;;;;;;;;;;;;;;;1047125;28;4346;-59
2022/09/15 03:05:37;;;;;;;;;;;;;;;;;;1047654;28;5048;-58
2022/09/15 03:06:17;;;;;;;;;;;;;;;;;;1048501;28;3906;-59
2022/09/15 03:06:48;;;;;;;;;;;;;;;;;;1046578;28;3778;-59
2022/09/15 03:07:18;;;;;;;;;;;;;;;;;;1048529;28;4237;-59
2022/09/15 03:07:49;;;;;;;;;;;;;;;;;;1048786;28;4093;-59
2022/09/15 03:08:19;;;;;;;;;;;;;;;;;;1048707;28;4210;-58
2022/09/15 03:08:51;;;;;;;;;;;;;;;;;;1048284;28;3448;-57
2022/09/15 03:09:21;;;;;;;;;;;;;;;;;;1047589;28;4014;-58
2022/09/15 03:09:51;;;;;;;;;;;;;;;;;;1048062;28;3552;-59
2022/09/15 03:10:23;;;;;;;;;;;;;;;;;;1048055;28;4022;-58
2022/09/15 03:10:55;;;;;;;;;;;;;;;;;;1047343;28;3101;-59
2022/09/15 03:11:26;;;;;;;;;;;;;;;;;;1048395;28;4040;-58
2022/09/15 03:11:56;;;;;;;;;;;;;;;;;;1048697;28;4158;-59
2022/09/15 03:12:27;;;;;;;;;;;;;;;;;;1046703;28;3842;-59
2022/09/15 03:12:57;;;;;;;;;;;;;;;;;;1048640;28;3082;-57
2022/09/15 03:13:27;;;;;;;;;;;;;;;;;;1048291;28;3995;-59
2022/09/15 03:13:58;;;;;;;;;;;;;;;;;;1049117;28;3911;-58
2022/09/15 03:14:31;;;;;;;;;;;;;;;;;;1046262;28;4016;-59
2022/09/15 03:15:01;;;;;;;;;;;;;;;;;;1046987;28;4145;-57
2022/09/15 03:15:32;;;;;;;;;;;;;;;;;;1043585;28;5130;-59
2022/09/15 03:16:06;;;;;;;;;;;;;;;;;;1043134;28;3959;-59
2022/09/15 03:16:36;;;;;;;;;;;;;;;;;;1044744;28;3133;-57
2022/09/15 03:17:06;;;;;;;;;;;;;;;;;;1043571;28;3911;-57
2022/09/15 03:17:38;;;;;;;;;;;;;;;;;;1049232;28;1774;-59
2022/09/15 03:18:08;;;;;;;;;;;;;;;;;;1044761;28;4101;-58
2022/09/15 03:18:45;;;;;;;;;;;;;;;;;;1046164;28;2961;-58
2022/09/15 03:19:16;;;;;;;;;;;;;;;;;;1045253;28;4092;-58
2022/09/15 03:19:46;;;;;;;;;;;;;;;;;;1046040;28;3731;-58
2022/09/15 03:20:19;;;;;;;;;;;;;;;;;;1048151;28;4461;-59
2022/09/15 03:20:54;;;;;;;;;;;;;;;;;;1048071;28;3925;-60
2022/09/15 03:21:26;;;;;;;;;;;;;;;;;;1047085;28;4098;-58
2022/09/15 03:21:56;;;;;;;;;;;;;;;;;;1044541;28;3787;-59
2022/09/15 03:22:26;;;;;;;;;;;;;;;;;;1042869;28;3827;-60
2022/09/15 03:22:57;;;;;;;;;;;;;;;;;;1044339;28;3411;-57
2022/09/15 03:23:27;;;;;;;;;;;;;;;;;;1043002;28;4473;-59
2022/09/15 03:23:57;;;;;;;;;;;;;;;;;;1048450;28;3401;-60
2022/09/15 03:24:28;;;;;;;;;;;;;;;;;;1043281;28;4151;-58
2022/09/15 03:24:58;;;;;;;;;;;;;;;;;;1045293;28;3711;-59
2022/09/15 03:25:28;;;;;;;;;;;;;;;;;;1044639;28;4033;-59
2022/09/15 03:25:59;;;;;;;;;;;;;;;;;;1045510;28;3972;-59
2022/09/15 03:26:29;;;;;;;;;;;;;;;;;;1046649;28;3874;-58
2022/09/15 03:27:00;;;;;;;;;;;;;;;;;;1047764;28;2998;-58
2022/09/15 03:27:30;;;;;;;;;;;;;;;;;;1045867;28;3819;-57
2022/09/15 03:28:00;;;;;;;;;;;;;;;;;;1045353;28;3717;-60
2022/09/15 03:28:31;;;;;;;;;;;;;;;;;;1045772;28;3980;-56
2022/09/15 03:29:01;;;;;;;;;;;;;;;;;;1047456;28;3917;-58
2022/09/15 03:29:31;;;;;;;;;;;;;;;;;;1045404;28;2415;-57
2022/09/15 03:30:03;;;;;;;;;;;;;;;;;;1048077;28;4060;-58
2022/09/15 03:30:33;;;;;;;;;;;;;;;;;;1048146;28;2831;-56
2022/09/15 03:31:03;;;;;;;;;;;;;;;;;;1049400;28;3903;-58
2022/09/15 03:31:41;;;;;;;;;;;;;;;;;;1046931;28;3994;-59
2022/09/15 03:32:11;;;;;;;;;;;;;;;;;;1048677;28;4083;-59
2022/09/15 03:32:42;;;;;;;;;;;;;;;;;;1048263;28;3792;-59
2022/09/15 03:33:12;;;;;;;;;;;;;;;;;;1048624;28;4102;-58
2022/09/15 03:33:42;;;;;;;;;;;;;;;;;;1047513;28;3161;-59
2022/09/15 03:34:12;;;;;;;;;;;;;;;;;;1047157;28;3980;-59
2022/09/15 03:34:42;;;;;;;;;;;;;;;;;;1048333;28;2861;-58
2022/09/15 03:35:13;;;;;;;;;;;;;;;;;;1047954;28;3895;-59
2022/09/15 03:35:47;;;;;;;;;;;;;;;;;;1042918;28;2606;-58
2022/09/15 03:36:17;;;;;;;;;;;;;;;;;;1042283;28;3790;-59
2022/09/15 03:36:47;;;;;;;;;;;;;;;;;;1043157;28;3465;-59
2022/09/15 03:37:18;;;;;;;;;;;;;;;;;;1043283;28;4112;-59
2022/09/15 03:37:48;;;;;;;;;;;;;;;;;;1049085;28;3638;-58
2022/09/15 03:38:19;;;;;;;;;;;;;;;;;;1047719;28;3949;-59
2022/09/15 03:38:49;;;;;;;;;;;;;;;;;;1046208;28;4678;-59
2022/09/15 03:39:19;;;;;;;;;;;;;;;;;;1045631;28;3893;-58
2022/09/15 03:40:03;;;;;;;;;;;;;;;;;;1044418;28;3702;-57
2022/09/15 03:40:41;;;;;;;;;;;;;;;;;;1043212;28;4082;-58
2022/09/15 03:41:12;;;;;;;;;;;;;;;;;;1044324;28;3883;-59
2022/09/15 03:41:42;;;;;;;;;;;;;;;;;;1044410;28;2905;-58
2022/09/15 03:42:13;;;;;;;;;;;;;;;;;;1043730;28;4115;-59
2022/09/15 03:42:43;;;;;;;;;;;;;;;;;;1043785;28;3709;-59
2022/09/15 03:43:13;;;;;;;;;;;;;;;;;;1039044;28;4099;-56
2022/09/15 03:43:44;;;;;;;;;;;;;;;;;;1039698;28;4099;-59
2022/09/15 03:44:14;;;;;;;;;;;;;;;;;;1041790;28;4100;-58
2022/09/15 03:44:44;;;;;;;;;;;;;;;;;;1037622;28;3877;-56
2022/09/15 03:45:14;;;;;;;;;;;;;;;;;;1043380;28;4046;-55
2022/09/15 03:45:45;;;;;;;;;;;;;;;;;;1042529;28;3620;-56
2022/09/15 03:46:15;;;;;;;;;;;;;;;;;;1044755;28;3936;-58
2022/09/15 03:46:45;;;;;;;;;;;;;;;;;;1044792;28;3866;-57
2022/09/15 03:47:15;;;;;;;;;;;;;;;;;;1045225;28;4039;-58
2022/09/15 03:47:46;;;;;;;;;;;;;;;;;;1048275;28;3793;-60
2022/09/15 03:48:16;;;;;;;;;;;;;;;;;;1041484;28;3828;-59
2022/09/15 03:48:46;;;;;;;;;;;;;;;;;;1042256;28;4108;-58
2022/09/15 03:49:17;;;;;;;;;;;;;;;;;;1045575;28;4119;-58
2022/09/15 03:49:47;;;;;;;;;;;;;;;;;;1045145;28;4018;-58
2022/09/15 03:50:17;;;;;;;;;;;;;;;;;;1039493;28;4073;-58
2022/09/15 03:50:47;;;;;;;;;;;;;;;;;;1040026;28;3832;-59
2022/09/15 03:51:18;;;;;;;;;;;;;;;;;;1044424;28;3864;-59
2022/09/15 03:51:48;;;;;;;;;;;;;;;;;;1044983;28;3612;-58
2022/09/15 03:52:18;;;;;;;;;;;;;;;;;;1042205;28;4029;-59